createdAt,value
2018-07-08T00:00:46.469Z,100756
2018-07-08T00:01:51.619Z,100750
2018-07-08T00:02:57.086Z,100741
2018-07-08T00:04:01.656Z,100747
2018-07-08T00:05:06.553Z,100750
2018-07-08T00:06:11.999Z,100747
2018-07-08T00:07:17.694Z,100744
2018-07-08T00:08:22.863Z,100753
2018-07-08T00:09:29.123Z,100741
2018-07-08T00:10:34.591Z,100744
2018-07-08T00:11:40.028Z,100750
2018-07-08T00:12:45.436Z,100744
2018-07-08T00:13:50.611Z,100738
2018-07-08T00:14:55.780Z,100741
2018-07-08T00:16:01.239Z,100747
2018-07-08T00:17:05.835Z,100750
2018-07-08T00:18:11.488Z,100738
2018-07-08T00:19:16.627Z,100756
2018-07-08T00:20:21.780Z,100750
2018-07-08T00:21:26.396Z,100753
2018-07-08T00:22:31.000Z,100741
2018-07-08T00:23:35.881Z,100744
2018-07-08T00:24:41.722Z,100747
2018-07-08T00:25:47.164Z,100750
2018-07-08T00:26:52.331Z,100735
2018-07-08T00:27:57.753Z,100730
2018-07-08T00:29:02.347Z,100741
2018-07-08T00:30:07.239Z,100738
2018-07-08T00:31:12.357Z,100730
2018-07-08T00:32:17.521Z,100735
2018-07-08T00:33:22.665Z,100730
2018-07-08T00:34:28.279Z,100735
2018-07-08T00:35:33.730Z,100735
2018-07-08T00:36:38.590Z,100732
2018-07-08T00:37:44.038Z,100741
2018-07-08T00:38:49.213Z,100732
2018-07-08T00:39:55.279Z,100741
2018-07-08T00:41:01.219Z,100727
2018-07-08T00:42:06.665Z,100738
2018-07-08T00:43:12.347Z,100735
2018-07-08T00:44:17.248Z,100727
2018-07-08T00:45:22.410Z,100727
2018-07-08T00:46:27.568Z,100721
2018-07-08T00:47:33.016Z,100727
2018-07-08T00:48:38.536Z,100724
2018-07-08T00:49:43.695Z,100729
2018-07-08T00:50:48.859Z,100732
2018-07-08T00:51:54.662Z,100712
2018-07-08T00:52:59.810Z,100718
2018-07-08T00:54:05.001Z,100729
2018-07-08T00:55:09.571Z,100732
2018-07-08T00:56:15.024Z,100727
2018-07-08T00:57:20.477Z,100729
2018-07-08T00:58:25.609Z,100729
2018-07-08T00:59:30.765Z,100735
2018-07-08T01:00:36.182Z,100718
2018-07-08T01:01:41.164Z,100735
2018-07-08T01:02:46.557Z,100727
2018-07-08T01:03:52.728Z,100735
2018-07-08T01:04:57.904Z,100729
2018-07-08T01:06:02.771Z,100729
2018-07-08T01:07:07.965Z,100724
2018-07-08T01:08:13.402Z,100735
2018-07-08T01:09:18.873Z,100732
2018-07-08T01:10:23.869Z,100727
2018-07-08T01:11:28.733Z,100741
2018-07-08T01:12:34.162Z,100741
2018-07-08T01:13:39.328Z,100732
2018-07-08T01:14:44.226Z,100738
2018-07-08T01:15:49.084Z,100738
2018-07-08T01:16:54.243Z,100738
2018-07-08T01:17:59.143Z,100738
2018-07-08T01:19:04.849Z,100744
2018-07-08T01:20:10.031Z,100744
2018-07-08T01:21:15.474Z,100750
2018-07-08T01:22:21.161Z,100744
2018-07-08T01:23:26.618Z,100738
2018-07-08T01:24:33.120Z,100744
2018-07-08T01:25:38.564Z,100738
2018-07-08T01:26:43.718Z,100741
2018-07-08T01:27:49.952Z,100738
2018-07-08T01:28:55.407Z,100753
2018-07-08T01:30:00.867Z,100744
2018-07-08T01:31:06.285Z,100750
2018-07-08T01:32:11.721Z,100747
2018-07-08T01:33:17.164Z,100753
2018-07-08T01:34:22.578Z,100756
2018-07-08T01:35:27.745Z,100756
2018-07-08T01:36:33.497Z,100759
2018-07-08T01:37:38.385Z,100767
2018-07-08T01:38:43.547Z,100770
2018-07-08T01:39:49.341Z,100762
2018-07-08T01:40:54.780Z,100764
2018-07-08T01:41:59.672Z,100761
2018-07-08T01:43:04.915Z,100767
2018-07-08T01:44:09.519Z,100759
2018-07-08T01:45:14.676Z,100767
2018-07-08T01:46:20.184Z,100767
2018-07-08T01:47:25.627Z,100759
2018-07-08T01:48:31.178Z,100759
2018-07-08T01:49:36.339Z,100773
2018-07-08T01:50:41.212Z,100767
2018-07-08T01:51:46.721Z,100770
2018-07-08T01:52:51.616Z,100776
2018-07-08T01:53:56.252Z,100782
2018-07-08T01:55:01.770Z,100767
2018-07-08T01:56:06.084Z,100788
2018-07-08T01:57:10.979Z,100782
2018-07-08T01:58:16.557Z,100782
2018-07-08T01:59:21.469Z,100773
2018-07-08T02:00:29.447Z,100782
2018-07-08T02:01:34.885Z,100773
2018-07-08T02:02:40.049Z,100773
2018-07-08T02:03:45.261Z,100773
2018-07-08T02:04:50.433Z,100782
2018-07-08T02:05:55.607Z,100776
2018-07-08T02:07:01.583Z,100770
2018-07-08T02:08:06.275Z,100776
2018-07-08T02:09:11.448Z,100785
2018-07-08T02:10:17.108Z,100770
2018-07-08T02:11:22.294Z,100770
2018-07-08T02:12:28.001Z,100779
2018-07-08T02:13:33.439Z,100785
2018-07-08T02:14:38.613Z,100759
2018-07-08T02:15:44.450Z,100779
2018-07-08T02:16:49.331Z,100767
2018-07-08T02:17:54.223Z,100770
2018-07-08T02:18:59.503Z,100779
2018-07-08T02:20:04.940Z,100776
2018-07-08T02:21:09.815Z,100773
2018-07-08T02:22:14.970Z,100770
2018-07-08T02:23:20.417Z,100776
2018-07-08T02:25:44.874Z,100779
2018-07-08T02:26:50.328Z,100776
2018-07-08T02:27:56.174Z,100773
2018-07-08T02:29:01.350Z,100779
2018-07-08T02:30:05.962Z,100776
2018-07-08T02:31:11.382Z,100788
2018-07-08T02:32:16.861Z,100782
2018-07-08T02:33:21.761Z,100782
2018-07-08T02:34:27.914Z,100782
2018-07-08T02:35:33.387Z,100788
2018-07-08T02:36:39.089Z,100788
2018-07-08T02:37:44.264Z,100788
2018-07-08T02:38:49.426Z,100791
2018-07-08T02:39:54.952Z,100794
2018-07-08T02:41:00.106Z,100791
2018-07-08T02:42:05.001Z,100794
2018-07-08T02:43:10.429Z,100796
2018-07-08T02:44:15.337Z,100796
2018-07-08T02:45:20.787Z,100785
2018-07-08T02:46:41.148Z,100785
2018-07-08T02:47:46.018Z,100791
2018-07-08T02:49:02.211Z,100785
2018-07-08T02:50:07.097Z,100791
2018-07-08T02:51:12.560Z,100788
2018-07-08T02:52:18.250Z,100785
2018-07-08T02:53:23.435Z,100788
2018-07-08T02:54:28.578Z,100785
2018-07-08T02:55:33.759Z,100791
2018-07-08T02:56:39.197Z,100788
2018-07-08T02:57:44.714Z,100785
2018-07-08T02:58:49.879Z,100791
2018-07-08T02:59:54.741Z,100788
2018-07-08T03:01:00.160Z,100788
2018-07-08T03:02:05.321Z,100791
2018-07-08T03:03:10.209Z,100794
2018-07-08T03:04:15.506Z,100796
2018-07-08T03:05:20.380Z,100794
2018-07-08T03:06:40.485Z,100796
2018-07-08T03:07:45.930Z,100788
2018-07-08T03:08:51.424Z,100804
2018-07-08T03:09:57.004Z,100796
2018-07-08T03:11:02.460Z,100794
2018-07-08T03:12:07.615Z,100791
2018-07-08T03:13:12.849Z,100798
2018-07-08T03:14:18.284Z,100791
2018-07-08T03:15:23.453Z,100794
2018-07-08T03:16:29.490Z,100796
2018-07-08T03:17:34.932Z,100798
2018-07-08T03:18:40.162Z,100796
2018-07-08T03:19:45.620Z,100801
2018-07-08T03:20:51.073Z,100796
2018-07-08T03:21:56.643Z,100794
2018-07-08T03:23:01.522Z,100810
2018-07-08T03:24:05.859Z,100801
2018-07-08T03:25:11.134Z,100801
2018-07-08T03:26:16.292Z,100807
2018-07-08T03:27:21.788Z,100807
2018-07-08T03:28:27.595Z,100807
2018-07-08T03:29:33.042Z,100804
2018-07-08T03:30:37.915Z,100804
2018-07-08T03:31:43.396Z,100798
2018-07-08T03:32:48.556Z,100807
2018-07-08T03:33:54.380Z,100801
2018-07-08T03:34:59.832Z,100801
2018-07-08T03:36:04.993Z,100804
2018-07-08T03:37:11.742Z,100796
2018-07-08T03:38:16.899Z,100804
2018-07-08T03:39:22.359Z,100801
2018-07-08T03:40:27.946Z,100798
2018-07-08T03:41:32.556Z,100807
2018-07-08T03:42:37.560Z,100804
2018-07-08T03:43:43.005Z,100813
2018-07-08T03:44:48.161Z,100810
2018-07-08T03:45:53.427Z,100810
2018-07-08T03:46:58.027Z,100804
2018-07-08T03:48:03.198Z,100813
2018-07-08T03:49:08.317Z,100816
2018-07-08T03:50:13.491Z,100824
2018-07-08T03:51:18.660Z,100819
2018-07-08T03:52:24.342Z,100810
2018-07-08T03:53:29.788Z,100830
2018-07-08T03:54:35.625Z,100824
2018-07-08T03:55:40.792Z,100824
2018-07-08T03:56:45.663Z,100827
2018-07-08T03:57:50.929Z,100819
2018-07-08T03:58:56.093Z,100827
2018-07-08T04:00:00.712Z,100827
2018-07-08T04:01:06.124Z,100833
2018-07-08T04:02:11.585Z,100833
2018-07-08T04:03:16.745Z,100836
2018-07-08T04:04:22.437Z,100836
2018-07-08T04:05:27.587Z,100833
2018-07-08T04:06:33.425Z,100830
2018-07-08T04:07:38.862Z,100836
2018-07-08T04:08:43.758Z,100830
2018-07-08T04:09:49.478Z,100847
2018-07-08T04:10:54.630Z,100830
2018-07-08T04:12:00.084Z,100847
2018-07-08T04:13:05.873Z,100833
2018-07-08T04:14:11.316Z,100827
2018-07-08T04:15:16.719Z,100847
2018-07-08T04:16:22.395Z,100836
2018-07-08T04:17:27.849Z,100844
2018-07-08T04:18:33.541Z,100836
2018-07-08T04:19:38.686Z,100839
2018-07-08T04:20:43.860Z,100827
2018-07-08T04:21:49.081Z,100830
2018-07-08T04:22:54.241Z,100836
2018-07-08T04:23:58.835Z,100847
2018-07-08T04:25:03.440Z,100844
2018-07-08T04:26:08.581Z,100844
2018-07-08T04:27:14.030Z,100836
2018-07-08T04:28:19.458Z,100833
2018-07-08T04:29:24.625Z,100836
2018-07-08T04:30:30.594Z,100847
2018-07-08T04:31:35.975Z,100836
2018-07-08T04:32:40.852Z,100855
2018-07-08T04:33:46.251Z,100850
2018-07-08T04:34:50.567Z,100855
2018-07-08T04:35:56.003Z,100850
2018-07-08T04:37:01.432Z,100853
2018-07-08T04:38:06.589Z,100847
2018-07-08T04:39:12.074Z,100853
2018-07-08T04:40:17.474Z,100864
2018-07-08T04:41:22.647Z,100844
2018-07-08T04:42:28.264Z,100861
2018-07-08T04:43:33.140Z,100861
2018-07-08T04:44:38.586Z,100861
2018-07-08T04:45:44.276Z,100853
2018-07-08T04:46:49.725Z,100858
2018-07-08T04:47:54.890Z,100853
2018-07-08T04:49:00.591Z,100858
2018-07-08T04:50:05.780Z,100853
2018-07-08T04:51:10.674Z,100858
2018-07-08T04:52:16.367Z,100861
2018-07-08T04:53:21.253Z,100858
2018-07-08T04:54:27.187Z,100853
2018-07-08T04:55:32.083Z,100861
2018-07-08T04:56:37.242Z,100853
2018-07-08T04:57:42.796Z,100861
2018-07-08T04:58:47.961Z,100861
2018-07-08T04:59:52.842Z,100855
2018-07-08T05:00:58.180Z,100839
2018-07-08T05:02:03.929Z,100853
2018-07-08T05:03:08.826Z,100855
2018-07-08T05:04:14.428Z,100858
2018-07-08T05:05:19.016Z,100858
2018-07-08T05:06:24.237Z,100839
2018-07-08T05:07:30.188Z,100850
2018-07-08T05:08:35.620Z,100861
2018-07-08T05:09:41.031Z,100856
2018-07-08T05:10:45.917Z,100858
2018-07-08T05:11:51.371Z,100861
2018-07-08T05:12:56.655Z,100861
2018-07-08T05:14:01.518Z,100864
2018-07-08T05:15:06.131Z,100853
2018-07-08T05:16:11.275Z,100853
2018-07-08T05:17:16.162Z,100858
2018-07-08T05:18:21.055Z,100861
2018-07-08T05:19:26.398Z,100856
2018-07-08T05:20:32.198Z,100856
2018-07-08T05:21:37.420Z,100856
2018-07-08T05:22:42.885Z,100858
2018-07-08T05:23:48.339Z,100858
2018-07-08T05:24:53.855Z,100856
2018-07-08T05:25:59.033Z,100861
2018-07-08T05:27:04.185Z,100861
2018-07-08T05:28:09.314Z,100873
2018-07-08T05:29:14.508Z,100870
2018-07-08T05:30:19.976Z,100853
2018-07-08T05:31:25.822Z,100864
2018-07-08T05:32:30.716Z,100864
2018-07-08T05:33:35.738Z,100876
2018-07-08T05:34:41.189Z,100876
2018-07-08T05:35:45.861Z,100864
2018-07-08T05:36:51.830Z,100870
2018-07-08T05:37:57.267Z,100873
2018-07-08T05:39:02.434Z,100861
2018-07-08T05:40:06.825Z,100870
2018-07-08T05:41:11.984Z,100870
2018-07-08T05:42:16.880Z,100858
2018-07-08T05:43:22.306Z,100870
2018-07-08T05:44:27.745Z,100870
2018-07-08T05:45:33.656Z,100873
2018-07-08T05:46:38.545Z,100876
2018-07-08T05:47:43.709Z,100870
2018-07-08T05:48:49.235Z,100882
2018-07-08T05:49:54.684Z,100873
2018-07-08T05:50:59.859Z,100876
2018-07-08T05:52:05.554Z,100864
2018-07-08T05:53:10.719Z,100858
2018-07-08T05:54:15.883Z,100864
2018-07-08T05:55:21.345Z,100867
2018-07-08T05:56:26.504Z,100864
2018-07-08T05:57:31.359Z,100870
2018-07-08T05:58:36.800Z,100870
2018-07-08T05:59:42.254Z,100879
2018-07-08T06:00:47.387Z,100870
2018-07-08T06:01:52.863Z,100870
2018-07-08T06:02:57.767Z,100876
2018-07-08T06:04:03.813Z,100879
2018-07-08T06:05:08.975Z,100879
2018-07-08T06:06:14.155Z,100867
2018-07-08T06:07:19.433Z,100867
2018-07-08T06:08:24.597Z,100867
2018-07-08T06:09:30.369Z,100876
2018-07-08T06:10:35.828Z,100873
2018-07-08T06:11:41.270Z,100879
2018-07-08T06:12:47.125Z,100867
2018-07-08T06:13:52.284Z,100873
2018-07-08T06:14:56.889Z,100879
2018-07-08T06:16:02.636Z,100879
2018-07-08T06:17:07.226Z,100867
2018-07-08T06:18:12.136Z,100867
2018-07-08T06:19:17.821Z,100873
2018-07-08T06:20:23.261Z,100879
2018-07-08T06:21:28.844Z,100864
2018-07-08T06:22:34.288Z,100853
2018-07-08T06:23:39.460Z,100873
2018-07-08T06:24:45.154Z,100867
2018-07-08T06:25:50.092Z,100859
2018-07-08T06:26:55.707Z,100856
2018-07-08T06:28:06.269Z,100864
2018-07-08T06:29:10.882Z,100859
2018-07-08T06:30:16.332Z,100867
2018-07-08T06:31:22.027Z,100861
2018-07-08T06:32:26.901Z,100870
2018-07-08T06:33:32.346Z,100864
2018-07-08T06:34:37.506Z,100859
2018-07-08T06:35:42.952Z,100856
2018-07-08T06:36:48.080Z,100867
2018-07-08T06:37:52.680Z,100853
2018-07-08T06:38:57.840Z,100859
2018-07-08T06:40:03.401Z,100867
2018-07-08T06:41:08.613Z,100859
2018-07-08T06:42:13.783Z,100864
2018-07-08T06:43:19.341Z,100862
2018-07-08T06:44:24.512Z,100859
2018-07-08T06:45:30.321Z,100856
2018-07-08T06:46:35.552Z,100853
2018-07-08T06:47:40.718Z,100847
2018-07-08T06:48:46.121Z,100850
2018-07-08T06:49:51.009Z,100856
2018-07-08T06:50:55.893Z,100844
2018-07-08T06:52:01.449Z,100850
2018-07-08T06:53:06.481Z,100847
2018-07-08T06:54:11.945Z,100856
2018-07-08T06:55:17.438Z,100847
2018-07-08T06:56:22.885Z,100853
2018-07-08T06:57:28.358Z,100850
2018-07-08T06:58:33.515Z,100850
2018-07-08T06:59:38.672Z,100850
2018-07-08T07:00:44.525Z,100859
2018-07-08T07:01:49.719Z,100864
2018-07-08T07:02:55.201Z,100862
2018-07-08T07:04:00.904Z,100847
2018-07-08T07:05:05.228Z,100856
2018-07-08T07:06:10.413Z,100847
2018-07-08T07:07:16.103Z,100839
2018-07-08T07:08:21.273Z,100856
2018-07-08T07:09:27.288Z,100847
2018-07-08T07:10:32.175Z,100853
2018-07-08T07:11:37.613Z,100853
2018-07-08T07:12:42.908Z,100839
2018-07-08T07:13:48.082Z,100850
2018-07-08T07:14:53.243Z,100847
2018-07-08T07:15:59.005Z,100853
2018-07-08T07:17:04.175Z,100853
2018-07-08T07:18:09.327Z,100850
2018-07-08T07:19:15.047Z,100850
2018-07-08T07:20:20.255Z,100850
2018-07-08T07:21:40.045Z,100853
2018-07-08T07:22:45.249Z,100847
2018-07-08T07:23:50.464Z,100839
2018-07-08T07:24:56.291Z,100836
2018-07-08T07:26:01.164Z,100856
2018-07-08T07:27:05.476Z,100847
2018-07-08T07:28:10.901Z,100844
2018-07-08T07:29:16.358Z,100839
2018-07-08T07:30:20.953Z,100847
2018-07-08T07:31:26.519Z,100850
2018-07-08T07:32:31.686Z,100859
2018-07-08T07:33:37.491Z,100853
2018-07-08T07:34:42.370Z,100844
2018-07-08T07:35:47.254Z,100859
2018-07-08T07:36:52.500Z,100850
2018-07-08T07:37:58.063Z,100850
2018-07-08T07:39:03.248Z,100850
2018-07-08T07:40:08.657Z,100847
2018-07-08T07:41:13.822Z,100837
2018-07-08T07:42:18.973Z,100847
2018-07-08T07:43:24.390Z,100834
2018-07-08T07:44:29.829Z,100847
2018-07-08T07:45:35.364Z,100844
2018-07-08T07:46:40.524Z,100844
2018-07-08T07:47:45.689Z,100831
2018-07-08T07:48:51.106Z,100834
2018-07-08T07:49:56.005Z,100856
2018-07-08T07:51:01.182Z,100844
2018-07-08T07:52:06.292Z,100847
2018-07-08T07:53:11.447Z,100839
2018-07-08T07:54:16.633Z,100844
2018-07-08T07:55:22.151Z,100847
2018-07-08T07:56:27.599Z,100837
2018-07-08T07:57:33.158Z,100853
2018-07-08T07:58:38.318Z,100850
2018-07-08T07:59:43.772Z,100850
2018-07-08T08:00:49.617Z,100847
2018-07-08T08:01:54.773Z,100847
2018-07-08T08:02:59.651Z,100834
2018-07-08T08:04:04.877Z,100843
2018-07-08T08:05:10.058Z,100843
2018-07-08T08:06:15.242Z,100844
2018-07-08T08:07:20.820Z,100837
2018-07-08T08:08:25.481Z,100847
2018-07-08T08:09:31.389Z,100844
2018-07-08T08:10:36.622Z,100850
2018-07-08T08:11:41.559Z,100847
2018-07-08T08:12:47.254Z,100834
2018-07-08T08:13:52.932Z,100853
2018-07-08T08:14:58.337Z,100843
2018-07-08T08:16:03.336Z,100837
2018-07-08T08:17:08.295Z,100837
2018-07-08T08:18:13.166Z,100834
2018-07-08T08:19:18.714Z,100843
2018-07-08T08:20:23.588Z,100843
2018-07-08T08:21:29.389Z,100837
2018-07-08T08:22:34.844Z,100843
2018-07-08T08:23:40.014Z,100845
2018-07-08T08:24:45.856Z,100834
2018-07-08T08:25:51.024Z,100837
2018-07-08T08:26:55.796Z,100843
2018-07-08T08:28:01.080Z,100843
2018-07-08T08:29:05.679Z,100834
2018-07-08T08:30:10.873Z,100837
2018-07-08T08:31:16.381Z,100843
2018-07-08T08:32:21.548Z,100834
2018-07-08T08:33:27.356Z,100843
2018-07-08T08:34:32.807Z,100845
2018-07-08T08:35:37.680Z,100831
2018-07-08T08:36:43.369Z,100837
2018-07-08T08:37:48.257Z,100828
2018-07-08T08:38:53.436Z,100837
2018-07-08T08:39:59.271Z,100828
2018-07-08T08:41:04.446Z,100834
2018-07-08T08:42:09.329Z,100837
2018-07-08T08:43:14.760Z,100837
2018-07-08T08:44:19.653Z,100834
2018-07-08T08:45:24.524Z,100834
2018-07-08T08:46:44.854Z,100837
2018-07-08T08:47:50.290Z,100843
2018-07-08T08:48:56.575Z,100837
2018-07-08T08:50:01.453Z,100848
2018-07-08T08:51:06.333Z,100848
2018-07-08T08:52:10.996Z,100851
2018-07-08T08:53:16.167Z,100845
2018-07-08T08:54:21.337Z,100851
2018-07-08T08:55:27.230Z,100851
2018-07-08T08:56:32.414Z,100851
2018-07-08T08:57:37.729Z,100851
2018-07-08T08:58:43.170Z,100845
2018-07-08T08:59:48.616Z,100831
2018-07-08T09:00:54.036Z,100843
2018-07-08T09:01:59.201Z,100831
2018-07-08T09:03:04.380Z,100843
2018-07-08T09:04:09.901Z,100834
2018-07-08T09:05:15.072Z,100843
2018-07-08T09:06:20.579Z,100834
2018-07-08T09:07:40.642Z,100843
2018-07-08T09:08:45.524Z,100828
2018-07-08T09:09:50.953Z,100828
2018-07-08T09:10:56.144Z,100834
2018-07-08T09:12:00.728Z,100831
2018-07-08T09:13:05.869Z,100843
2018-07-08T09:14:10.469Z,100828
2018-07-08T09:15:15.848Z,100834
2018-07-08T09:16:20.983Z,100834
2018-07-08T09:17:26.155Z,100823
2018-07-08T09:18:31.993Z,100843
2018-07-08T09:19:37.191Z,100831
2018-07-08T09:20:42.078Z,100823
2018-07-08T09:21:47.083Z,100828
2018-07-08T09:22:51.963Z,100831
2018-07-08T09:23:57.204Z,100817
2018-07-08T09:25:02.587Z,100817
2018-07-08T09:26:07.478Z,100820
2018-07-08T09:27:12.511Z,100823
2018-07-08T09:28:18.023Z,100820
2018-07-08T09:29:23.824Z,100826
2018-07-08T09:30:29.605Z,100814
2018-07-08T09:31:34.787Z,100826
2018-07-08T09:32:40.241Z,100832
2018-07-08T09:33:45.812Z,100829
2018-07-08T09:34:51.251Z,100837
2018-07-08T09:35:55.841Z,100829
2018-07-08T09:37:01.687Z,100837
2018-07-08T09:38:06.287Z,100832
2018-07-08T09:39:11.421Z,100835
2018-07-08T09:40:17.793Z,100835
2018-07-08T09:41:23.241Z,100832
2018-07-08T09:42:28.404Z,100835
2018-07-08T09:43:33.272Z,100826
2018-07-08T09:44:38.164Z,100832
2018-07-08T09:45:43.954Z,100832
2018-07-08T09:46:48.824Z,100835
2018-07-08T09:47:54.275Z,100835
2018-07-08T09:48:59.841Z,100826
2018-07-08T09:50:05.305Z,100835
2018-07-08T09:51:09.900Z,100838
2018-07-08T09:52:15.323Z,100835
2018-07-08T09:53:20.480Z,100829
2018-07-08T09:54:40.929Z,100829
2018-07-08T09:55:46.372Z,100835
2018-07-08T09:56:51.540Z,100823
2018-07-08T09:57:57.446Z,100826
2018-07-08T09:59:02.120Z,100820
2018-07-08T10:00:06.362Z,100829
2018-07-08T10:01:11.622Z,100823
2018-07-08T10:02:16.541Z,100826
2018-07-08T10:03:21.696Z,100832
2018-07-08T10:04:41.932Z,100835
2018-07-08T10:05:47.338Z,100820
2018-07-08T10:06:53.597Z,100826
2018-07-08T10:07:58.775Z,100823
2018-07-08T10:09:03.932Z,100815
2018-07-08T10:10:08.779Z,100829
2018-07-08T10:11:13.690Z,100835
2018-07-08T10:12:19.154Z,100838
2018-07-08T10:13:25.495Z,100835
2018-07-08T10:14:30.681Z,100832
2018-07-08T10:15:36.229Z,100832
2018-07-08T10:16:41.406Z,100829
2018-07-08T10:17:47.318Z,100829
2018-07-08T10:18:54.137Z,100832
2018-07-08T10:19:59.137Z,100832
2018-07-08T10:21:03.529Z,100829
2018-07-08T10:22:08.520Z,100835
2018-07-08T10:23:13.692Z,100829
2018-07-08T10:24:19.134Z,100821
2018-07-08T10:25:25.165Z,100821
2018-07-08T10:26:30.985Z,100826
2018-07-08T10:27:36.830Z,100824
2018-07-08T10:28:41.996Z,100821
2018-07-08T10:29:47.166Z,100821
2018-07-08T10:30:53.011Z,100812
2018-07-08T10:31:58.374Z,100818
2018-07-08T10:33:02.967Z,100829
2018-07-08T10:34:08.368Z,100824
2018-07-08T10:35:13.237Z,100821
2018-07-08T10:36:18.395Z,100821
2018-07-08T10:37:23.928Z,100818
2018-07-08T10:38:29.102Z,100818
2018-07-08T10:39:34.885Z,100818
2018-07-08T10:40:40.337Z,100821
2018-07-08T10:41:45.787Z,100830
2018-07-08T10:42:50.927Z,100821
2018-07-08T10:43:55.248Z,100806
2018-07-08T10:45:00.720Z,100818
2018-07-08T10:46:05.889Z,100827
2018-07-08T10:47:11.059Z,100812
2018-07-08T10:48:16.242Z,100818
2018-07-08T10:49:21.399Z,100824
2018-07-08T10:50:26.565Z,100815
2018-07-08T10:51:32.141Z,100809
2018-07-08T10:52:37.479Z,100806
2018-07-08T10:53:42.349Z,100815
2018-07-08T10:54:47.773Z,100801
2018-07-08T10:55:52.934Z,100812
2018-07-08T10:56:57.815Z,100809
2018-07-08T10:58:02.939Z,100804
2018-07-08T10:59:07.807Z,100812
2018-07-08T11:00:12.688Z,100821
2018-07-08T11:01:18.495Z,100806
2018-07-08T11:02:23.432Z,100815
2018-07-08T11:03:29.180Z,100806
2018-07-08T11:04:34.343Z,100798
2018-07-08T11:05:39.782Z,100796
2018-07-08T11:06:45.792Z,100793
2018-07-08T11:07:50.088Z,100798
2018-07-08T11:08:55.552Z,100793
2018-07-08T11:10:01.270Z,100796
2018-07-08T11:11:05.879Z,100793
2018-07-08T11:12:11.087Z,100790
2018-07-08T11:13:16.498Z,100798
2018-07-08T11:14:21.960Z,100796
2018-07-08T11:15:27.688Z,100796
2018-07-08T11:16:32.580Z,100796
2018-07-08T11:17:37.481Z,100790
2018-07-08T11:18:43.674Z,100790
2018-07-08T11:19:48.829Z,100790
2018-07-08T11:20:53.728Z,100796
2018-07-08T11:21:59.556Z,100793
2018-07-08T11:23:04.734Z,100807
2018-07-08T11:24:09.911Z,100793
2018-07-08T11:25:15.606Z,100798
2018-07-08T11:26:21.062Z,100790
2018-07-08T11:27:26.917Z,100796
2018-07-08T11:28:32.378Z,100796
2018-07-08T11:29:38.081Z,100787
2018-07-08T11:30:43.797Z,100801
2018-07-08T11:31:48.956Z,100790
2018-07-08T11:32:54.132Z,100798
2018-07-08T11:33:59.819Z,100787
2018-07-08T11:35:04.994Z,100785
2018-07-08T11:36:09.881Z,100796
2018-07-08T11:37:15.564Z,100776
2018-07-08T11:38:20.753Z,100785
2018-07-08T11:39:26.410Z,100782
2018-07-08T11:40:30.767Z,100785
2018-07-08T11:41:35.921Z,100770
2018-07-08T11:42:41.607Z,100773
2018-07-08T11:43:47.104Z,100773
2018-07-08T11:44:52.526Z,100779
2018-07-08T11:45:57.962Z,100761
2018-07-08T11:47:03.126Z,100773
2018-07-08T11:48:08.015Z,100779
2018-07-08T11:49:13.443Z,100767
2018-07-08T11:50:18.883Z,100770
2018-07-08T11:51:23.779Z,100776
2018-07-08T11:52:44.233Z,100782
2018-07-08T11:53:49.704Z,100779
2018-07-08T11:54:55.818Z,100779
2018-07-08T11:56:00.693Z,100776
2018-07-08T11:57:05.858Z,100770
2018-07-08T11:58:11.762Z,100776
2018-07-08T11:59:17.205Z,100776
2018-07-08T12:00:22.380Z,100770
2018-07-08T12:01:28.296Z,100764
2018-07-08T12:02:33.459Z,100762
2018-07-08T12:03:39.165Z,100764
2018-07-08T12:04:44.045Z,100779
2018-07-08T12:05:49.494Z,100785
2018-07-08T12:06:55.281Z,100791
2018-07-08T12:08:00.463Z,100773
2018-07-08T12:09:05.055Z,100779
2018-07-08T12:10:10.475Z,100788
2018-07-08T12:11:15.639Z,100782
2018-07-08T12:12:20.818Z,100773
2018-07-08T12:13:25.941Z,100776
2018-07-08T12:14:30.952Z,100776
2018-07-08T12:15:36.529Z,100762
2018-07-08T12:16:41.412Z,100773
2018-07-08T12:17:46.850Z,100776
2018-07-08T12:18:52.247Z,100770
2018-07-08T12:19:57.424Z,100770
2018-07-08T12:21:02.591Z,100770
2018-07-08T12:22:07.880Z,100770
2018-07-08T12:23:12.774Z,100770
2018-07-08T12:24:17.642Z,100762
2018-07-08T12:25:22.348Z,100765
2018-07-08T12:26:27.244Z,100756
2018-07-08T12:27:33.102Z,100765
2018-07-08T12:28:38.421Z,100762
2018-07-08T12:29:43.602Z,100762
2018-07-08T12:30:49.287Z,100762
2018-07-08T12:31:54.733Z,100756
2018-07-08T12:32:59.925Z,100753
2018-07-08T12:34:05.625Z,100768
2018-07-08T12:35:10.784Z,100768
2018-07-08T12:36:16.230Z,100756
2018-07-08T12:37:21.939Z,100756
2018-07-08T12:38:26.834Z,100756
2018-07-08T12:39:32.159Z,100756
2018-07-08T12:40:37.055Z,100773
2018-07-08T12:41:42.209Z,100770
2018-07-08T12:42:48.110Z,100759
2018-07-08T12:43:52.992Z,100765
2018-07-08T12:44:58.157Z,100753
2018-07-08T12:46:03.413Z,100762
2018-07-08T12:47:07.720Z,100759
2018-07-08T12:48:12.317Z,100762
2018-07-08T12:49:18.158Z,100759
2018-07-08T12:50:23.628Z,100762
2018-07-08T12:51:29.935Z,100759
2018-07-08T12:52:35.120Z,100759
2018-07-08T12:53:40.221Z,100753
2018-07-08T12:54:45.918Z,100753
2018-07-08T12:55:51.352Z,100753
2018-07-08T12:56:56.244Z,100747
2018-07-08T12:58:01.360Z,100756
2018-07-08T12:59:05.886Z,100744
2018-07-08T13:00:10.943Z,100747
2018-07-08T13:01:16.642Z,100759
2018-07-08T13:02:21.518Z,100750
2018-07-08T13:03:27.237Z,100744
2018-07-08T13:04:32.150Z,100756
2018-07-08T13:05:37.306Z,100739
2018-07-08T13:06:44.262Z,100744
2018-07-08T13:07:49.025Z,100747
2018-07-08T13:08:54.475Z,100747
2018-07-08T13:09:59.997Z,100747
2018-07-08T13:11:04.903Z,100753
2018-07-08T13:12:09.779Z,100747
2018-07-08T13:13:15.182Z,100750
2018-07-08T13:14:20.352Z,100742
2018-07-08T13:15:26.477Z,100733
2018-07-08T13:16:31.941Z,100727
2018-07-08T13:17:36.537Z,100727
2018-07-08T13:18:42.408Z,100739
2018-07-08T13:19:47.859Z,100733
2018-07-08T13:20:53.102Z,100736
2018-07-08T13:21:58.517Z,100733
2018-07-08T13:23:03.410Z,100733
2018-07-08T13:24:08.570Z,100733
2018-07-08T13:25:13.977Z,100730
2018-07-08T13:26:18.976Z,100742
2018-07-08T13:28:44.985Z,100724
2018-07-08T13:29:49.874Z,100736
2018-07-08T13:30:55.586Z,100727
2018-07-08T13:32:00.739Z,100733
2018-07-08T13:33:05.630Z,100721
2018-07-08T13:34:11.039Z,100721
2018-07-08T13:35:16.216Z,100742
2018-07-08T13:36:21.397Z,100721
2018-07-08T13:37:27.019Z,100733
2018-07-08T13:38:32.484Z,100718
2018-07-08T13:39:37.918Z,100727